WetterOnline ( https://www.wetteronline.de )

Wetter aktuell Westerstede

Aktuelles Wetter: Friesoythe-Altenoythe (6m)

6-stündlich | Neueste Meldungen
Ortszeit Temperatur Wetter
Fr, 27.11. 13:00 8.0° C bewölkt
Fr, 27.11. 7:00 5.9° C bedeckt
Fr, 27.11. 1:00 6.3° C bewölkt
Do, 26.11. 19:00 7.5° C bedeckt
Do, 26.11. 13:00 9.7° C bedeckt
Do, 26.11. 7:00 8.6° C Sprühregen
Do, 26.11. 1:00 7.3° C bedeckt
Mi, 25.11. 19:00 6.0° C wolkig
Ortszeit Temperatur Wetter
Fr, 27.11. 15:30 8.3° C bewölkt
Fr, 27.11. 15:20 8.3° C bewölkt
Fr, 27.11. 15:10 8.4° C bedeckt
Fr, 27.11. 15:00 8.4° C bedeckt
Fr, 27.11. 14:50 8.4° C bedeckt
Fr, 27.11. 14:40 8.4° C bedeckt
Fr, 27.11. 14:30 8.5° C bedeckt
Fr, 27.11. 14:00 8.4° C bewölkt
Fr, 27.11. 12:00 7.3° C bedeckt
Ortszeit Relative Feuchte Sichtweite
Fr, 27.11. 13:00 94% 8 km
Fr, 27.11. 7:00 98% 6 km
Fr, 27.11. 1:00 99% 6 km
Do, 26.11. 19:00 97% 10 km
Do, 26.11. 13:00 91% 10 km
Do, 26.11. 7:00 94% 4.6 km
Do, 26.11. 1:00 89% 10 km
Mi, 25.11. 19:00 86% 15 km
Ortszeit Relative Feuchte Sichtweite
Fr, 27.11. 15:30 88% 9 km
Fr, 27.11. 15:20 88% -
Fr, 27.11. 15:10 88% -
Fr, 27.11. 15:00 90% 9 km
Fr, 27.11. 14:50 90% -
Fr, 27.11. 14:40 90% -
Fr, 27.11. 14:30 90% 9 km
Fr, 27.11. 14:00 92% 9 km
Fr, 27.11. 12:00 94% 4.4 km
Ortszeit Niederschlagsmenge Niederschlagsart
Fr, 27.11. 13:00 0.1 l/m2 in 6 Std. Regen
Fr, 27.11. 7:00 0.1 l/m2 in 12 Std. Regen
Fr, 27.11. 1:00 0.1 l/m2 in 6 Std. Regen
Do, 26.11. 19:00 0.1 l/m2 in 12 Std. -
Do, 26.11. 13:00 0.1 l/m2 in 6 Std. Regen
Do, 26.11. 7:00 0.1 l/m2 in 12 Std. Regen
Do, 26.11. 1:00 0.0 l/m2 in 6 Std. -
Mi, 25.11. 19:00 0.0 l/m2 in 12 Std. -
Ortszeit Niederschlagsmenge Niederschlagsart
Fr, 27.11. 15:30 0.0 l/m2 in 1 Std. -
Fr, 27.11. 15:20 keine Meldung -
Fr, 27.11. 15:10 keine Meldung -
Fr, 27.11. 15:00 0.0 l/m2 in 1 Std. -
Fr, 27.11. 14:50 keine Meldung -
Fr, 27.11. 14:40 keine Meldung -
Fr, 27.11. 14:30 0.0 l/m2 in 1 Std. -
Fr, 27.11. 14:00 0.0 l/m2 in 1 Std. -
Fr, 27.11. 12:00 keine Meldung -
Ortszeit Stärke Spitze Richtung
km/h Bft. km/h Grad Sektor
Fr, 27.11. 13:00 9 2 15 100° O
Fr, 27.11. 7:00 4 1 7 50° NO
Fr, 27.11. 1:00 2 1 6 210° SW
Do, 26.11. 19:00 4 1 14 260° W
Do, 26.11. 13:00 11 2 22 270° W
Do, 26.11. 7:00 13 3 22 240° SW
Do, 26.11. 1:00 11 2 18 220° SW
Mi, 25.11. 19:00 13 3 26 200° S
Ortszeit Stärke Spitze Richtung
km/h Bft. km/h Grad Sektor
Fr, 27.11. 15:30 14 3 18 120° SO
Fr, 27.11. 15:20 14 3 - 120° SO
Fr, 27.11. 15:10 13 3 - 120° SO
Fr, 27.11. 15:00 11 2 18 110° O
Fr, 27.11. 14:50 11 2 - 110° O
Fr, 27.11. 14:40 11 2 - 110° O
Fr, 27.11. 14:30 11 2 18 110° O
Fr, 27.11. 14:00 11 2 18 110° O
Fr, 27.11. 12:00 7 2 11 90° O
Ortszeit Untergrenze Bedeckung Gattung
total tief tief mittel hoch
Fr, 27.11. 13:00 180 m 7/8 8/8 - - -
Fr, 27.11. 7:00 1080 m 8/8 8/8 - - -
Fr, 27.11. 1:00 1500 m 7/8 7/8 - - -
Do, 26.11. 19:00 1800 m 8/8 8/8 - - -
Do, 26.11. 13:00 300 m 8/8 8/8 - - -
Do, 26.11. 7:00 210 m 8/8 8/8 - - -
Do, 26.11. 1:00 270 m 8/8 8/8 - - -
Mi, 25.11. 19:00 6000 m 8/8 3/8 - - -
Ortszeit Bedeckungsgrad in Achtel und Wolkenuntergrenze
Fr, 27.11. 15:30 7(390m)
Fr, 27.11. 15:20 7(390m)
Fr, 27.11. 15:10 8(390m)
Fr, 27.11. 15:00 7(420m) 8(570m)
Fr, 27.11. 14:50 7(420m) 8(570m)
Fr, 27.11. 14:40 6(450m) 8(570m)
Fr, 27.11. 14:30 2(300m) 7(480m) 8(630m)
Fr, 27.11. 14:00 7(300m) 7(480m)
Fr, 27.11. 12:00 8(1050m)
Ortszeit Luftdruck NN (hPa) Tendenz (hPa in 3 Std.)
Fr, 27.11. 13:00 1021 - 0,5
Fr, 27.11. 7:00 1021 + 0,1
Fr, 27.11. 1:00 1021 + 0,1
Do, 26.11. 19:00 1021 + 0,2
Do, 26.11. 13:00 1020 + 0,3
Do, 26.11. 7:00 1018 + 0,5
Do, 26.11. 1:00 1018 + 0,8
Mi, 25.11. 19:00 1017 + 0,5
Ortszeit Luftdruck NN (hPa) Tendenz (hPa in 3 Std.)
Fr, 27.11. 15:30 1021 - 0,4
Fr, 27.11. 15:20 1021 keine Meldung
Fr, 27.11. 15:10 1021 keine Meldung
Fr, 27.11. 15:00 1021 - 0,5
Fr, 27.11. 14:50 1021 keine Meldung
Fr, 27.11. 14:40 1021 keine Meldung
Fr, 27.11. 14:30 1021 - 0,8
Fr, 27.11. 14:00 1021 - 0,7
Fr, 27.11. 12:00 1021 0,0
Ortszeit Schneehöhe (cm)
Fr, 27.11. 13:00 0
Fr, 27.11. 7:00 0
Fr, 27.11. 1:00 0
Do, 26.11. 19:00 0
Do, 26.11. 13:00 0
Do, 26.11. 7:00 0
Do, 26.11. 1:00 0
Mi, 25.11. 19:00 0
Ortszeit Schneehöhe (cm)
Fr, 27.11. 15:30 0
Fr, 27.11. 15:20 0
Fr, 27.11. 15:10 0
Fr, 27.11. 15:00 0
Fr, 27.11. 14:50 0
Fr, 27.11. 14:40 0
Fr, 27.11. 14:30 0
Fr, 27.11. 14:00 0
Fr, 27.11. 12:00 -
Link zu dieser Seite / Seite empfehlen

Das Wetter in ...